Aérodrome :
LOGIN :

S'inscrire | Disclaimer

   EN    FR    IT 

 










Légende :    VFR   VFR Marginal   IFR   IFR Intensif   IFR Très Intensif
Visi : 
Plafond : 
>= 8 km
>= 3000ft
5 à 8 km
1000 à 3000 ft
1500m à 5 km
500 à 1000 ft
800 à 1500m
200 à 500 ft
< 800m
< 200 ft
Symboles :   Orages  Brouillard  Fortes neiges  Fortes précipitations  Vent > 20 kt
SIGMETs :   Divers  Orages  Givrage  Turbulence  Onde Orograph.  Cendres Volcan.







- Altitude de l'aérodrome : 779 ft
- Code IATA : CMF
- Voir les cartes d'approche


LFLB - Chambery / Aix-Les-Bains

DERNIER METAR :
  • 222000Z AUTO 21004KT 160V260 9999 -RA FEW062/// OVC110/// ///TCU 18/17 Q1017

METARs EXPIRÉS :
  • 221930Z AUTO 22005KT 170V260 9999 RA VCTS FEW064/// SCT092/// BKN110/// ///CB 19/16 Q1017
  • 221900Z AUTO 23007KT 170V280 9999 -TSRA FEW050/// SCT090/// OVC110/// ///CB 20/18 Q1017 TEMPO VRB15G25KT 4000 SHRA
  • 221830Z AUTO VRB06KT 4200 +TSRA BR FEW022/// BKN056/// BKN080/// ///CB 21/19 Q1016 TEMPO VRB15G25KT 2000 TSRA
  • 221800Z AUTO 19007KT 150V240 9999 -RA VCTS FEW026/// BKN060/// BKN076/// ///CB 22/18 Q1015 TEMPO VRB15G25KT 2000 TSRA
  • 221730Z AUTO 19009KT 160V220 9999 TS FEW034/// BKN066/// BKN110/// ///CB 23/18 Q1014 TEMPO VRB15G25KT 2000 TSRA

TAF TAF LFLB
Valide du 22 à 12h jusqu'au 23 à 12h UTC


221100Z 2212/2312 34005KT 9999 SCT055TCU
TEMPO 2214/2221 4000 SHRA BKN050TCU
PROB40
TEMPO 2214/2220 VRB15G25KT 2000 TSRA BKN050CB
PROB30
TEMPO 2214/2219 1500 TSGR SCT015 BKN040CB
BECMG 2215/2217 16008KT
BECMG 2300/2302 VRB03KT BKN045
TEMPO 2302/2308 SHRA SCT040TCU
BECMG 2308/2310 34005KT
Pas de NOTAMs connus pour ce terrain.
3 SIGMETs publiés pour la FIR Marseille (LFMM) :
 
Orages noyés dans la masse
LFMM SIGMET 5 VALID 222000/222200 LFPW
LFMM MARSEILLE FIR/UIR EMBD TS FCST WI N4630 E00400 - N4630 E00700 - N4515 E00700 - N4430 E00330 TOP FL380 MOV NE 25KT NC=
Orages noyés dans la masse
LFMM SIGMET 4 VALID 221800/222000 LFPW
LFMM MARSEILLE FIR/UIR EMBD TS FCST WI N4630 E00345 - N4630 E00700 - N4500 E00700 - N4430 E00345 TOP FL400 MOV NE 15KT NC=
Orages noyés dans la masse
LFMM SIGMET 3 VALID 221715/222000 LFPW
LFMM MARSEILLE FIR/UIR EMBD TS OBS AT 1715Z WI N4630 E00430 - N4630 E00530 - N4600 E00515 TOP FL400 MOV NE 20KT NC=



MET'MAP, la Météo Aéronautique d'un coup d'oeil ! - Copyright ORBIFLY Décembre 2007 - Disclaimer

ORBIFLY MET'MAP TEAM :

Programmation & Développement : Alexandra Zaïnal
Conception & Développement : Baudouin d'Aumeries
Co-Programmation & Développement : Marc-Olivier Méhu
Soutien technique & logistique : Manuel Goepfert

Contact : metmap@orbifly.com




SOURCES & CREDITS :

   NOAA